createdAt,value
2019-04-29T00:00:54.379Z,4.19
2019-04-29T00:03:24.938Z,4.11
2019-04-29T00:05:53.999Z,3.88
2019-04-29T00:08:23.125Z,3.95
2019-04-29T00:10:52.295Z,3.85
2019-04-29T00:13:21.365Z,3.69
2019-04-29T00:16:18.331Z,4.02
2019-04-29T00:19:24.397Z,4.26
2019-04-29T00:21:53.625Z,4.31
2019-04-29T00:24:22.710Z,4.42
2019-04-29T00:26:51.778Z,4.48
2019-04-29T00:29:20.868Z,4.32
2019-04-29T00:31:49.917Z,4.17
2019-04-29T00:34:19.146Z,4.39
2019-04-29T00:36:58.814Z,4.55
2019-04-29T00:39:46.792Z,4.60
2019-04-29T00:42:26.141Z,4.53
2019-04-29T00:44:55.179Z,4.48
2019-04-29T00:47:24.268Z,4.35
2019-04-29T00:49:54.698Z,4.57
2019-04-29T00:52:23.859Z,4.54
2019-04-29T00:55:01.668Z,4.38
2019-04-29T00:57:30.846Z,4.49
2019-04-29T01:00:01.173Z,4.62
2019-04-29T01:02:30.207Z,4.50
2019-04-29T01:04:59.251Z,4.42
2019-04-29T01:07:28.331Z,4.58
2019-04-29T01:09:57.404Z,4.54
2019-04-29T01:12:26.536Z,4.64
2019-04-29T01:14:55.612Z,4.15
2019-04-29T01:17:25.196Z,3.94
2019-04-29T01:19:54.246Z,4.22
2019-04-29T01:22:23.321Z,4.13
2019-04-29T01:24:52.353Z,3.89
2019-04-29T01:27:26.398Z,3.87
2019-04-29T01:29:55.430Z,3.81
2019-04-29T01:32:24.579Z,4.25
2019-04-29T01:34:55.053Z,4.33
2019-04-29T01:37:43.228Z,4.19
2019-04-29T01:40:27.273Z,3.90
2019-04-29T01:42:56.323Z,4.30
2019-04-29T01:45:25.413Z,3.93
2019-04-29T01:47:55.275Z,3.96
2019-04-29T01:50:24.442Z,3.94
2019-04-29T01:52:53.508Z,3.96
2019-04-29T01:55:22.534Z,3.93
2019-04-29T01:57:51.663Z,3.99
2019-04-29T02:00:20.690Z,3.94
2019-04-29T02:02:49.771Z,3.77
2019-04-29T02:05:18.812Z,3.64
2019-04-29T02:07:47.865Z,3.70
2019-04-29T02:10:22.839Z,3.73
2019-04-29T02:12:53.008Z,3.78
2019-04-29T02:15:22.119Z,3.75
2019-04-29T02:17:51.229Z,3.99
2019-04-29T02:20:20.323Z,4.23
2019-04-29T02:23:20.161Z,4.08
2019-04-29T02:25:49.835Z,4.08
2019-04-29T02:28:18.944Z,4.05
2019-04-29T02:30:48.441Z,3.75
2019-04-29T02:33:17.564Z,3.74
2019-04-29T02:35:47.181Z,3.74
2019-04-29T02:38:24.643Z,3.91
2019-04-29T02:41:03.641Z,4.25
2019-04-29T02:43:34.517Z,4.46
2019-04-29T02:46:03.560Z,4.18
2019-04-29T02:48:34.613Z,4.41
2019-04-29T02:51:04.969Z,4.24
2019-04-29T02:53:33.953Z,4.20
2019-04-29T02:56:03.096Z,3.85
2019-04-29T02:58:40.729Z,3.70
2019-04-29T03:01:26.307Z,3.59
2019-04-29T03:04:17.192Z,3.89
2019-04-29T03:06:46.524Z,4.19
2019-04-29T03:09:15.558Z,3.85
2019-04-29T03:11:44.576Z,3.87
2019-04-29T03:14:14.281Z,4.04
2019-04-29T03:16:43.377Z,4.14
2019-04-29T03:19:18.493Z,4.27
2019-04-29T03:21:55.933Z,4.21
2019-04-29T03:24:26.274Z,4.02
2019-04-29T03:26:55.302Z,3.97
2019-04-29T03:29:24.389Z,4.14
2019-04-29T03:31:54.318Z,3.81
2019-04-29T03:34:23.422Z,3.72
2019-04-29T03:36:52.475Z,3.84
2019-04-29T03:39:21.603Z,4.00
2019-04-29T03:41:50.652Z,4.07
2019-04-29T03:44:19.927Z,3.57
2019-04-29T03:46:49.283Z,3.77
2019-04-29T03:49:19.087Z,3.79
2019-04-29T03:51:48.126Z,3.94
2019-04-29T03:54:17.172Z,4.00
2019-04-29T03:56:47.541Z,3.80
2019-04-29T03:59:16.599Z,3.84
2019-04-29T04:01:56.029Z,3.86
2019-04-29T04:04:43.538Z,3.92
2019-04-29T04:07:30.185Z,4.05
2019-04-29T04:09:59.260Z,4.09
2019-04-29T04:12:28.282Z,4.18
2019-04-29T04:14:57.283Z,3.89
2019-04-29T04:17:34.993Z,3.97
2019-04-29T04:20:04.122Z,4.17
2019-04-29T04:22:46.853Z,4.02
2019-04-29T04:25:16.035Z,3.85
2019-04-29T04:27:45.226Z,3.76
2019-04-29T04:30:14.280Z,3.98
2019-04-29T04:32:44.618Z,3.98
2019-04-29T04:35:14.115Z,4.36
2019-04-29T04:37:43.351Z,4.34
2019-04-29T04:40:14.533Z,4.29
2019-04-29T04:42:43.672Z,4.24
2019-04-29T04:45:12.821Z,3.96
2019-04-29T04:47:41.999Z,3.80
2019-04-29T04:50:11.073Z,3.86
2019-04-29T04:52:40.094Z,3.67
2019-04-29T04:55:09.646Z,2.58
2019-04-29T04:57:38.726Z,3.66
2019-04-29T05:00:10.890Z,3.95
2019-04-29T05:02:39.965Z,4.01
2019-04-29T05:05:09.052Z,3.69
2019-04-29T05:07:38.071Z,3.94
2019-04-29T05:10:07.112Z,3.70
2019-04-29T05:12:36.202Z,4.07
2019-04-29T05:15:05.700Z,4.20
2019-04-29T05:17:34.790Z,4.30
2019-04-29T05:20:03.880Z,4.22
2019-04-29T05:22:33.002Z,4.21
2019-04-29T05:25:02.096Z,4.38
2019-04-29T05:27:31.128Z,4.33
2019-04-29T05:30:00.146Z,4.28
2019-04-29T05:32:29.203Z,4.35
2019-04-29T05:35:00.199Z,4.55
2019-04-29T05:37:51.118Z,4.46
2019-04-29T05:40:37.532Z,4.40
2019-04-29T05:43:07.370Z,4.27
2019-04-29T05:45:46.187Z,4.38
2019-04-29T05:48:15.031Z,4.64
2019-04-29T05:50:56.940Z,4.79
2019-04-29T05:53:29.416Z,4.44
2019-04-29T05:55:58.528Z,4.82
2019-04-29T05:58:27.596Z,5.01
2019-04-29T06:01:04.977Z,4.81
2019-04-29T06:03:37.856Z,4.89
2019-04-29T06:06:04.779Z,4.64
2019-04-29T06:08:34.548Z,4.90
2019-04-29T06:11:06.146Z,5.13
2019-04-29T06:13:35.228Z,5.26
2019-04-29T06:16:04.355Z,4.67
2019-04-29T06:18:33.426Z,5.14
2019-04-29T06:21:09.467Z,5.21
2019-04-29T06:23:33.294Z,5.65
2019-04-29T06:26:02.418Z,5.77
2019-04-29T06:28:31.518Z,5.92
2019-04-29T06:31:00.871Z,6.00
2019-04-29T06:33:31.017Z,5.78
2019-04-29T06:36:00.126Z,5.53
2019-04-29T06:38:29.272Z,5.72
2019-04-29T06:40:58.350Z,5.91
2019-04-29T06:43:29.123Z,5.49
2019-04-29T06:45:58.290Z,5.76
2019-04-29T06:48:27.376Z,6.01
2019-04-29T06:50:56.416Z,5.85
2019-04-29T06:53:25.624Z,5.98
2019-04-29T06:55:54.767Z,5.49
2019-04-29T06:58:23.826Z,5.43
2019-04-29T07:00:55.975Z,6.00
2019-04-29T07:03:25.464Z,4.96
2019-04-29T07:05:54.554Z,5.14
2019-04-29T07:08:23.689Z,5.06
2019-04-29T07:10:55.855Z,4.87
2019-04-29T07:13:24.582Z,5.46
2019-04-29T07:15:53.942Z,5.66
2019-04-29T07:18:23.005Z,5.65
2019-04-29T07:20:52.067Z,6.21
2019-04-29T07:23:21.210Z,6.23
2019-04-29T07:25:50.321Z,6.79
2019-04-29T07:28:19.651Z,6.87
2019-04-29T07:31:01.041Z,7.15
2019-04-29T07:33:22.666Z,6.49
2019-04-29T07:35:50.304Z,7.18
2019-04-29T07:38:19.422Z,7.40
2019-04-29T07:40:48.506Z,7.31
2019-04-29T07:43:17.626Z,7.54
2019-04-29T07:46:03.604Z,8.04
2019-04-29T07:48:37.005Z,7.01
2019-04-29T07:51:05.807Z,7.21
2019-04-29T07:53:44.512Z,7.43
2019-04-29T07:56:06.387Z,7.09
2019-04-29T07:58:36.822Z,7.68
2019-04-29T08:01:05.988Z,8.36
2019-04-29T08:03:35.007Z,8.45
2019-04-29T08:06:04.032Z,9.33
2019-04-29T08:08:33.104Z,8.93
2019-04-29T08:11:02.165Z,9.14
2019-04-29T08:13:31.676Z,9.10
2019-04-29T08:16:00.733Z,8.89
2019-04-29T08:18:29.740Z,9.78
2019-04-29T08:20:58.860Z,9.90
2019-04-29T08:23:27.944Z,10.57
2019-04-29T08:26:02.121Z,11.22
2019-04-29T08:28:27.835Z,10.43
2019-04-29T08:30:56.987Z,10.18
2019-04-29T08:33:25.991Z,10.71
2019-04-29T08:35:55.085Z,11.17
2019-04-29T08:38:24.206Z,12.02
2019-04-29T08:40:53.311Z,11.31
2019-04-29T08:43:47.153Z,11.37
2019-04-29T08:46:20.045Z,11.81
2019-04-29T08:48:50.372Z,12.85
2019-04-29T08:51:19.524Z,13.27
2019-04-29T08:53:48.532Z,12.71
2019-04-29T08:56:17.667Z,12.09
2019-04-29T08:58:49.255Z,12.84
2019-04-29T09:01:17.577Z,13.82
2019-04-29T09:03:46.786Z,14.31
2019-04-29T09:06:15.907Z,13.83
2019-04-29T09:08:54.733Z,14.45
2019-04-29T09:11:15.788Z,15.06
2019-04-29T09:13:45.089Z,14.13
2019-04-29T09:16:14.364Z,14.15
2019-04-29T09:18:43.543Z,15.11
2019-04-29T09:21:12.576Z,15.86
2019-04-29T09:23:41.845Z,16.74
2019-04-29T09:26:18.720Z,15.34
2019-04-29T09:28:49.987Z,15.19
2019-04-29T09:31:19.261Z,14.21
2019-04-29T09:33:49.104Z,16.11
2019-04-29T09:36:19.349Z,15.41
2019-04-29T09:38:49.958Z,14.87
2019-04-29T09:41:30.499Z,15.23
2019-04-29T09:44:10.698Z,16.31
2019-04-29T09:46:39.740Z,16.98
2019-04-29T09:49:10.008Z,17.87
2019-04-29T09:51:39.138Z,16.97
2019-04-29T09:54:09.689Z,16.75
2019-04-29T09:56:39.002Z,16.16
2019-04-29T09:59:36.171Z,16.33
2019-04-29T10:02:26.336Z,17.34
2019-04-29T10:05:29.193Z,17.56
2019-04-29T10:07:58.287Z,16.72
2019-04-29T10:10:27.407Z,17.76
2019-04-29T10:12:56.515Z,16.28
2019-04-29T10:15:34.717Z,16.85
2019-04-29T10:18:12.239Z,16.98
2019-04-29T10:20:47.073Z,16.95
2019-04-29T10:23:16.205Z,18.92
2019-04-29T10:25:45.486Z,19.11
2019-04-29T10:28:15.651Z,17.95
2019-04-29T10:30:44.882Z,18.48
2019-04-29T10:33:17.565Z,18.80
2019-04-29T10:35:46.308Z,17.80
2019-04-29T10:38:16.878Z,16.69
2019-04-29T10:41:00.676Z,16.98
2019-04-29T10:43:53.639Z,16.76
2019-04-29T10:46:43.835Z,17.93
2019-04-29T10:49:22.489Z,18.83
2019-04-29T10:51:51.524Z,19.12
2019-04-29T10:54:20.629Z,20.34
2019-04-29T10:56:49.990Z,20.00
2019-04-29T10:59:19.052Z,20.06
2019-04-29T11:02:35.055Z,16.80
2019-04-29T11:05:25.299Z,16.51
2019-04-29T11:08:02.517Z,17.55
2019-04-29T11:10:31.733Z,18.20
2019-04-29T11:13:00.870Z,17.54
2019-04-29T11:15:33.720Z,16.12
2019-04-29T11:18:03.995Z,16.78
2019-04-29T11:20:34.917Z,16.44
2019-04-29T11:23:19.360Z,16.25
2019-04-29T11:25:58.469Z,16.31
2019-04-29T11:28:28.017Z,16.53
2019-04-29T11:30:58.416Z,18.25
2019-04-29T11:33:49.281Z,18.37
2019-04-29T11:36:20.138Z,17.63
2019-04-29T11:38:51.010Z,17.34
2019-04-29T11:41:21.499Z,18.04
2019-04-29T11:43:51.262Z,18.26
2019-04-29T11:46:22.827Z,19.21
2019-04-29T11:48:53.594Z,19.47
2019-04-29T11:52:07.721Z,19.69
2019-04-29T11:54:18.015Z,18.52
2019-04-29T11:56:45.347Z,18.02
2019-04-29T11:59:33.705Z,17.33
2019-04-29T12:02:24.283Z,16.73
2019-04-29T12:04:55.214Z,17.28
2019-04-29T12:07:31.864Z,16.95
2019-04-29T12:09:55.102Z,17.00
2019-04-29T12:12:24.495Z,16.51
2019-04-29T12:15:15.502Z,16.57
2019-04-29T12:18:03.570Z,16.10
2019-04-29T12:20:51.595Z,17.09
2019-04-29T12:23:20.669Z,17.31
2019-04-29T12:25:50.651Z,16.73
2019-04-29T12:28:19.837Z,17.13
2019-04-29T12:30:50.705Z,16.69
2019-04-29T12:33:32.419Z,16.87
2019-04-29T12:36:05.203Z,16.52
2019-04-29T12:39:11.127Z,16.64
2019-04-29T12:42:06.446Z,17.05
2019-04-29T12:44:44.456Z,17.57
2019-04-29T12:47:26.188Z,17.07
2019-04-29T12:49:49.820Z,16.85
2019-04-29T12:52:18.983Z,16.76
2019-04-29T12:54:48.002Z,16.40
2019-04-29T12:57:18.978Z,16.52
2019-04-29T12:59:48.004Z,16.48
2019-04-29T13:02:51.271Z,16.19
2019-04-29T13:05:42.293Z,16.36
2019-04-29T13:08:17.669Z,15.25
2019-04-29T13:10:54.873Z,15.91
2019-04-29T13:13:23.923Z,15.55
2019-04-29T13:16:22.076Z,15.79
2019-04-29T13:19:15.981Z,16.50
2019-04-29T13:21:39.395Z,15.87
2019-04-29T13:24:22.114Z,16.11
2019-04-29T13:26:42.512Z,15.38
2019-04-29T13:29:10.258Z,14.93
2019-04-29T13:31:40.749Z,14.92
2019-04-29T13:34:23.655Z,15.25
2019-04-29T13:36:42.553Z,15.32
2019-04-29T13:39:11.640Z,15.45
2019-04-29T13:41:56.144Z,15.61
2019-04-29T13:44:12.545Z,15.45
2019-04-29T13:47:12.676Z,15.22
2019-04-29T13:49:49.086Z,15.03
2019-04-29T13:52:16.819Z,15.12
2019-04-29T13:54:45.879Z,15.13
2019-04-29T13:57:16.026Z,14.95
2019-04-29T14:00:11.672Z,15.21
2019-04-29T14:02:58.440Z,15.32
2019-04-29T14:05:16.199Z,15.86
2019-04-29T14:07:48.660Z,15.28
2019-04-29T14:10:16.735Z,15.06
2019-04-29T14:12:49.372Z,15.19
2019-04-29T14:15:17.143Z,14.70
2019-04-29T14:17:47.413Z,15.37
2019-04-29T14:20:17.499Z,15.41
2019-04-29T14:22:46.589Z,15.54
2019-04-29T14:25:15.625Z,15.20
2019-04-29T14:27:44.696Z,15.35
2019-04-29T14:30:20.582Z,15.28
2019-04-29T14:32:52.603Z,15.29
2019-04-29T14:35:36.659Z,15.08
2019-04-29T14:38:06.274Z,14.93
2019-04-29T14:40:39.108Z,15.02
2019-04-29T14:43:31.340Z,15.24
2019-04-29T14:46:16.229Z,15.09
2019-04-29T14:48:49.294Z,15.37
2019-04-29T14:51:18.365Z,15.69
2019-04-29T14:53:56.319Z,15.40
2019-04-29T14:56:18.223Z,15.29
2019-04-29T14:58:47.445Z,15.89
2019-04-29T15:01:43.784Z,15.69
2019-04-29T15:04:18.606Z,15.68
2019-04-29T15:06:45.481Z,15.85
2019-04-29T15:09:18.161Z,16.12
2019-04-29T15:12:04.925Z,16.45
2019-04-29T15:14:40.634Z,15.53
2019-04-29T15:17:17.950Z,15.66
2019-04-29T15:20:02.854Z,15.52
2019-04-29T15:22:34.974Z,15.31
2019-04-29T15:25:04.014Z,15.60
2019-04-29T15:27:34.502Z,15.48
2019-04-29T15:30:03.940Z,15.12
2019-04-29T15:32:33.090Z,15.13
2019-04-29T15:35:02.608Z,15.23
2019-04-29T15:37:31.652Z,15.32
2019-04-29T15:40:00.822Z,14.99
2019-04-29T15:42:30.021Z,14.95
2019-04-29T15:44:59.207Z,15.12
2019-04-29T15:47:31.346Z,15.08
2019-04-29T15:50:00.700Z,15.04
2019-04-29T15:52:30.009Z,15.02
2019-04-29T15:54:59.080Z,14.84
2019-04-29T15:57:28.215Z,14.99
2019-04-29T15:59:59.935Z,15.07
2019-04-29T16:02:28.057Z,15.29
2019-04-29T16:05:04.687Z,15.69
2019-04-29T16:07:46.709Z,15.66
2019-04-29T16:10:36.499Z,15.26
2019-04-29T16:13:08.606Z,15.13
2019-04-29T16:15:37.787Z,14.89
2019-04-29T16:18:10.685Z,15.04
2019-04-29T16:20:37.926Z,14.99
2019-04-29T16:23:06.979Z,14.61
2019-04-29T16:25:40.492Z,14.41
2019-04-29T16:28:07.008Z,13.88
2019-04-29T16:30:36.066Z,13.51
2019-04-29T16:33:12.970Z,13.43
2019-04-29T16:35:37.473Z,13.19
2019-04-29T16:38:11.510Z,13.06
2019-04-29T16:40:41.490Z,12.62
2019-04-29T16:43:27.951Z,12.14
2019-04-29T16:46:08.813Z,11.83
2019-04-29T16:48:37.987Z,11.71
2019-04-29T16:51:14.629Z,11.74
2019-04-29T16:53:37.995Z,11.64
2019-04-29T16:56:07.110Z,11.52
2019-04-29T16:58:36.186Z,11.43
2019-04-29T17:01:05.346Z,11.60
2019-04-29T17:03:34.439Z,11.27
2019-04-29T17:06:03.654Z,11.46
2019-04-29T17:08:50.714Z,11.48
2019-04-29T17:11:21.155Z,11.74
2019-04-29T17:13:50.240Z,11.76
2019-04-29T17:16:20.942Z,11.61
2019-04-29T17:18:50.061Z,11.91
2019-04-29T17:21:21.344Z,11.34
2019-04-29T17:23:50.607Z,11.53
2019-04-29T17:26:21.398Z,11.68
2019-04-29T17:29:11.913Z,11.92
2019-04-29T17:31:55.791Z,11.53
2019-04-29T17:34:54.724Z,11.34
2019-04-29T17:36:55.243Z,11.45
2019-04-29T17:39:24.832Z,11.52
2019-04-29T17:41:53.875Z,11.78
2019-04-29T17:44:40.276Z,11.87
2019-04-29T17:47:17.823Z,11.75
2019-04-29T17:49:56.622Z,11.70
2019-04-29T17:52:28.202Z,11.73
2019-04-29T17:55:21.131Z,11.62
2019-04-29T17:57:58.235Z,11.45
2019-04-29T18:00:44.377Z,11.54
2019-04-29T18:03:41.358Z,11.46
2019-04-29T18:06:24.061Z,11.51
2019-04-29T18:09:09.748Z,11.36
2019-04-29T18:11:50.421Z,11.17
2019-04-29T18:14:09.708Z,10.98
2019-04-29T18:16:43.752Z,10.97
2019-04-29T18:19:18.995Z,10.88
2019-04-29T18:22:09.953Z,10.87
2019-04-29T18:24:56.728Z,11.03
2019-04-29T18:27:26.290Z,10.82
2019-04-29T18:29:55.312Z,10.67
2019-04-29T18:32:35.054Z,10.78
2019-04-29T18:34:56.704Z,10.84
2019-04-29T18:37:25.820Z,10.56
2019-04-29T18:39:57.730Z,10.58
2019-04-29T18:42:28.679Z,10.72
2019-04-29T18:45:00.322Z,10.55
2019-04-29T18:47:34.815Z,10.46
2019-04-29T18:49:59.853Z,10.43
2019-04-29T18:52:30.160Z,10.30
2019-04-29T18:54:59.162Z,10.47
2019-04-29T18:57:30.892Z,10.49
2019-04-29T18:59:59.610Z,10.61
2019-04-29T19:02:32.093Z,10.52
2019-04-29T19:05:32.457Z,10.34
2019-04-29T19:08:12.237Z,10.38
2019-04-29T19:10:34.933Z,10.38
2019-04-29T19:13:05.358Z,10.19
2019-04-29T19:15:35.411Z,10.09
2019-04-29T19:18:07.593Z,10.13
2019-04-29T19:20:37.696Z,10.18
2019-04-29T19:23:10.055Z,10.18
2019-04-29T19:25:41.507Z,10.22
2019-04-29T19:28:14.963Z,10.23
2019-04-29T19:30:42.434Z,10.13
2019-04-29T19:33:12.537Z,10.07
2019-04-29T19:35:42.107Z,9.98
2019-04-29T19:38:13.441Z,10.12
2019-04-29T19:40:43.563Z,10.13
2019-04-29T19:43:15.320Z,9.92
2019-04-29T19:45:44.635Z,9.86
2019-04-29T19:48:16.122Z,9.74
2019-04-29T19:50:50.122Z,9.81
2019-04-29T19:53:17.360Z,9.93
2019-04-29T19:55:46.453Z,9.98
2019-04-29T19:58:15.880Z,9.96
2019-04-29T20:00:47.331Z,9.89
2019-04-29T20:03:21.219Z,9.86
2019-04-29T20:06:01.777Z,9.71
2019-04-29T20:08:46.296Z,9.70
2019-04-29T20:11:00.834Z,9.69
2019-04-29T20:13:31.292Z,9.78
2019-04-29T20:16:24.864Z,9.98
2019-04-29T20:19:12.281Z,9.81
2019-04-29T20:21:36.404Z,9.80
2019-04-29T20:24:09.854Z,9.83
2019-04-29T20:26:37.342Z,9.69
2019-04-29T20:29:07.965Z,9.90
2019-04-29T20:31:39.135Z,10.01
2019-04-29T20:34:09.665Z,9.89
2019-04-29T20:36:42.755Z,9.84
2019-04-29T20:39:15.189Z,9.83
2019-04-29T20:41:44.593Z,9.81
2019-04-29T20:44:16.270Z,9.88
2019-04-29T20:47:12.369Z,9.87
2019-04-29T20:49:20.087Z,10.00
2019-04-29T20:51:52.738Z,10.01
2019-04-29T20:54:26.125Z,10.13
2019-04-29T20:57:03.027Z,10.24
2019-04-29T20:59:26.946Z,10.30
2019-04-29T21:02:11.217Z,10.34
2019-04-29T21:04:45.733Z,10.36
2019-04-29T21:07:07.021Z,10.29
2019-04-29T21:09:36.243Z,10.10
2019-04-29T21:12:22.415Z,10.08
2019-04-29T21:14:56.910Z,9.98
2019-04-29T21:17:30.840Z,9.88
2019-04-29T21:19:56.628Z,9.80
2019-04-29T21:22:26.064Z,9.83
2019-04-29T21:24:55.740Z,9.80
2019-04-29T21:27:26.014Z,9.75
2019-04-29T21:29:55.492Z,9.87
2019-04-29T21:32:25.799Z,9.91
2019-04-29T21:35:05.730Z,10.03
2019-04-29T21:37:46.631Z,9.94
2019-04-29T21:40:24.191Z,10.07
2019-04-29T21:42:55.877Z,10.11
2019-04-29T21:45:25.743Z,10.02
2019-04-29T21:47:54.903Z,9.93
2019-04-29T21:50:29.103Z,10.08
2019-04-29T21:53:01.694Z,10.07
2019-04-29T21:55:29.364Z,9.91
2019-04-29T21:57:58.811Z,9.98
2019-04-29T22:00:28.714Z,9.74
2019-04-29T22:02:59.061Z,9.65
2019-04-29T22:05:28.752Z,9.58
2019-04-29T22:07:58.044Z,9.69
2019-04-29T22:10:28.937Z,9.64
2019-04-29T22:13:01.946Z,9.62
2019-04-29T22:15:32.413Z,9.67
2019-04-29T22:18:01.640Z,9.75
2019-04-29T22:20:35.582Z,9.67
2019-04-29T22:23:08.337Z,9.72
2019-04-29T22:25:36.678Z,9.70
2019-04-29T22:28:06.433Z,9.66
2019-04-29T22:30:36.665Z,9.61
2019-04-29T22:33:06.409Z,9.67
2019-04-29T22:35:39.421Z,9.87
2019-04-29T22:38:07.826Z,9.89
2019-04-29T22:40:41.066Z,9.96
2019-04-29T22:43:45.794Z,10.01
2019-04-29T22:46:17.187Z,10.05
2019-04-29T22:48:48.695Z,10.00
2019-04-29T22:51:18.996Z,9.87
2019-04-29T22:53:48.398Z,9.74
2019-04-29T22:56:17.480Z,9.86
2019-04-29T22:58:47.470Z,9.82
2019-04-29T23:01:17.751Z,9.75
2019-04-29T23:03:47.438Z,9.89
2019-04-29T23:06:16.592Z,10.02
2019-04-29T23:08:46.763Z,9.84
2019-04-29T23:11:15.873Z,9.97
2019-04-29T23:13:45.884Z,9.95
2019-04-29T23:16:17.027Z,10.01
2019-04-29T23:18:46.151Z,10.15
2019-04-29T23:21:46.788Z,10.19
2019-04-29T23:24:26.187Z,10.26
2019-04-29T23:26:55.292Z,10.12
2019-04-29T23:29:25.507Z,10.14
2019-04-29T23:31:59.420Z,10.06
2019-04-29T23:34:29.147Z,10.19
2019-04-29T23:36:58.186Z,10.19
2019-04-29T23:39:27.329Z,10.25
2019-04-29T23:41:56.405Z,10.15
2019-04-29T23:44:25.416Z,10.23
2019-04-29T23:46:54.546Z,10.37
2019-04-29T23:49:25.113Z,10.58
2019-04-29T23:51:54.233Z,10.60
2019-04-29T23:54:25.204Z,10.54
2019-04-29T23:57:09.774Z,10.42
2019-04-29T23:59:40.695Z,10.49
